createdAt,value
2023-01-07T00:01:41.116Z,78105.19
2023-01-07T00:04:10.876Z,78109.19
2023-01-07T00:06:39.715Z,78103.22
2023-01-07T00:09:08.052Z,78105.19
2023-01-07T00:11:37.056Z,78111.16
2023-01-07T00:14:05.494Z,78105.19
2023-01-07T00:16:33.694Z,78109.19
2023-01-07T00:19:01.870Z,78109.19
2023-01-07T00:21:29.359Z,78095.25
2023-01-07T00:23:57.638Z,78099.25
2023-01-07T00:26:26.247Z,78105.19
2023-01-07T00:28:53.643Z,78097.25
2023-01-07T00:31:23.324Z,78087.31
2023-01-07T00:33:59.364Z,78063.44
2023-01-07T00:36:28.183Z,78061.47
2023-01-07T00:39:05.123Z,78065.44
2023-01-07T00:41:32.301Z,78071.41
2023-01-07T00:43:59.060Z,78061.47
2023-01-07T00:46:26.192Z,78063.44
2023-01-07T00:48:52.695Z,78085.31
2023-01-07T00:51:19.286Z,78077.38
2023-01-07T00:53:45.860Z,78071.41
2023-01-07T00:56:14.576Z,78087.31
2023-01-07T00:58:41.731Z,78081.34
2023-01-07T01:01:09.837Z,78083.34
2023-01-07T01:03:36.671Z,78083.34
2023-01-07T01:06:05.159Z,78091.28
2023-01-07T01:08:31.529Z,78089.28
2023-01-07T01:11:03.995Z,78093.28
2023-01-07T01:13:30.437Z,78087.31
2023-01-07T01:15:56.960Z,78089.28
2023-01-07T01:18:23.433Z,78085.31
2023-01-07T01:20:49.886Z,78083.34
2023-01-07T01:23:16.426Z,78085.31
2023-01-07T01:25:42.861Z,78063.44
2023-01-07T01:28:09.290Z,78073.41
2023-01-07T01:30:35.753Z,78083.34
2023-01-07T01:33:02.177Z,78079.34
2023-01-07T01:35:28.549Z,78087.31
2023-01-07T01:37:55.006Z,78085.31
2023-01-07T01:40:21.361Z,78085.31
2023-01-07T01:42:47.830Z,78081.34
2023-01-07T01:45:14.406Z,78057.50
2023-01-07T01:47:49.144Z,78063.44
2023-01-07T01:50:42.819Z,78053.50
2023-01-07T01:53:16.761Z,78045.56
2023-01-07T01:55:49.914Z,78035.63
2023-01-07T01:58:33.309Z,78039.59
2023-01-07T02:00:59.890Z,78041.59
2023-01-07T02:03:30.087Z,78039.59
2023-01-07T02:05:56.867Z,78035.63
2023-01-07T02:08:23.659Z,78027.66
2023-01-07T02:11:06.457Z,78035.63
2023-01-07T02:14:02.070Z,78035.63
2023-01-07T02:16:38.754Z,78027.66
2023-01-07T02:19:39.236Z,78045.56
2023-01-07T02:22:11.141Z,78035.63
2023-01-07T02:25:05.040Z,78021.69
2023-01-07T02:28:06.883Z,78001.81
2023-01-07T02:31:00.041Z,78005.81
2023-01-07T02:33:51.161Z,78005.81
2023-01-07T02:36:21.937Z,78025.69
2023-01-07T02:39:05.144Z,78039.59
2023-01-07T02:42:04.197Z,78053.50
2023-01-07T02:44:59.457Z,78049.53
2023-01-07T02:47:37.640Z,78049.53
2023-01-07T02:50:06.711Z,78061.47
2023-01-07T02:52:34.740Z,78045.56
2023-01-07T02:55:07.484Z,78037.59
2023-01-07T02:58:10.697Z,78025.69
2023-01-07T03:01:14.713Z,78043.56
2023-01-07T03:03:59.900Z,78041.59
2023-01-07T03:06:59.985Z,78035.63
2023-01-07T03:10:24.058Z,78047.56
2023-01-07T03:12:58.361Z,78049.53
2023-01-07T03:15:39.037Z,78065.44
2023-01-07T03:18:11.710Z,78059.47
2023-01-07T03:20:40.578Z,78079.34
2023-01-07T03:23:10.882Z,78089.28
2023-01-07T03:25:43.574Z,78085.31
2023-01-07T03:28:12.016Z,78087.31
2023-01-07T03:30:38.981Z,78091.28
2023-01-07T03:33:14.790Z,78087.31
2023-01-07T03:35:45.486Z,78079.34
2023-01-07T03:38:13.701Z,78073.41
2023-01-07T03:40:40.079Z,78077.38
2023-01-07T03:43:12.865Z,78061.47
2023-01-07T03:45:39.396Z,78045.56
2023-01-07T03:48:06.273Z,78037.59
2023-01-07T03:50:32.791Z,78021.69
2023-01-07T03:52:59.295Z,77993.88
2023-01-07T03:55:25.765Z,77985.91
2023-01-07T03:57:52.350Z,77974.00
2023-01-07T04:00:18.903Z,77979.97
2023-01-07T04:02:45.355Z,77960.06
2023-01-07T04:05:11.911Z,77966.03
2023-01-07T04:07:38.690Z,77958.09
2023-01-07T04:10:11.748Z,77940.19
2023-01-07T04:12:38.197Z,77932.25
2023-01-07T04:15:05.045Z,77926.28
2023-01-07T04:17:31.458Z,77926.28
2023-01-07T04:19:57.926Z,77930.25
2023-01-07T04:22:24.318Z,77946.16
2023-01-07T04:24:50.847Z,77926.28
2023-01-07T04:27:17.394Z,77950.13
2023-01-07T04:29:43.813Z,77932.25
2023-01-07T04:32:10.268Z,77932.25
2023-01-07T04:34:36.700Z,77906.41
2023-01-07T04:37:03.114Z,77894.47
2023-01-07T04:39:29.529Z,77878.56
2023-01-07T04:41:56.090Z,77884.53
2023-01-07T04:44:22.658Z,77908.38
2023-01-07T04:46:49.116Z,77890.50
2023-01-07T04:49:15.513Z,77922.31
2023-01-07T04:51:42.017Z,77956.09
2023-01-07T04:54:08.426Z,77979.97
2023-01-07T04:56:34.853Z,77993.88
2023-01-07T04:59:01.295Z,78003.81
2023-01-07T05:01:31.103Z,78001.81
2023-01-07T05:03:58.253Z,78003.81
2023-01-07T05:06:25.110Z,78019.72
2023-01-07T05:08:51.565Z,77975.97
2023-01-07T05:11:21.640Z,77975.97
2023-01-07T05:13:49.807Z,77956.09
2023-01-07T05:16:17.179Z,77946.16
2023-01-07T05:18:43.767Z,77950.13
2023-01-07T05:21:10.673Z,77938.22
2023-01-07T05:23:37.288Z,77918.31
2023-01-07T05:26:03.967Z,77922.31
2023-01-07T05:28:30.462Z,77914.34
2023-01-07T05:30:56.889Z,77914.34
2023-01-07T05:33:23.358Z,77908.38
2023-01-07T05:35:49.849Z,77906.41
2023-01-07T05:38:16.343Z,77902.44
2023-01-07T05:40:42.966Z,77888.50
2023-01-07T05:43:09.403Z,77892.47
2023-01-07T05:45:35.855Z,77892.47
2023-01-07T05:48:02.296Z,77890.50
2023-01-07T05:50:28.738Z,77878.56
2023-01-07T05:52:55.163Z,77866.63
2023-01-07T05:55:21.686Z,77864.66
2023-01-07T05:57:48.113Z,77880.56
2023-01-07T06:00:15.015Z,77888.50
2023-01-07T06:02:41.523Z,77900.44
2023-01-07T06:05:08.816Z,77902.44
2023-01-07T06:07:35.539Z,77902.44
2023-01-07T06:10:03.168Z,77910.38
2023-01-07T06:12:30.333Z,77902.44
2023-01-07T06:14:56.742Z,77900.44
2023-01-07T06:17:23.115Z,77904.41
2023-01-07T06:19:49.592Z,77892.47
2023-01-07T06:22:16.087Z,77902.44
2023-01-07T06:24:42.537Z,77908.38
2023-01-07T06:27:10.251Z,77932.25
2023-01-07T06:29:36.750Z,77940.19
2023-01-07T06:32:03.242Z,77948.16
2023-01-07T06:34:29.870Z,77930.25
2023-01-07T06:36:56.399Z,77928.28
2023-01-07T06:39:23.088Z,77924.28
2023-01-07T06:41:49.503Z,77908.38
2023-01-07T06:44:15.957Z,77912.38
2023-01-07T06:46:42.400Z,77904.41
2023-01-07T06:49:08.974Z,77908.38
2023-01-07T06:51:35.479Z,77902.44
2023-01-07T06:54:02.239Z,77878.56
2023-01-07T06:56:28.668Z,77886.53
2023-01-07T06:58:55.067Z,77874.59
2023-01-07T07:01:21.583Z,77872.59
2023-01-07T07:03:48.023Z,77860.69
2023-01-07T07:06:14.523Z,77856.69
2023-01-07T07:08:41.012Z,77838.81
2023-01-07T07:11:07.507Z,77850.75
2023-01-07T07:13:33.998Z,77854.72
2023-01-07T07:16:00.526Z,77852.72
2023-01-07T07:18:27.557Z,77844.78
2023-01-07T07:20:53.996Z,77842.78
2023-01-07T07:23:20.506Z,77842.78
2023-01-07T07:25:46.922Z,77848.75
2023-01-07T07:28:13.491Z,77832.84
2023-01-07T07:30:47.204Z,77842.78
2023-01-07T07:33:15.104Z,77834.84
2023-01-07T07:35:41.776Z,77836.81
2023-01-07T07:38:08.294Z,77834.84
2023-01-07T07:40:34.682Z,77826.88
2023-01-07T07:43:10.808Z,77807.00
2023-01-07T07:45:42.224Z,77814.97
2023-01-07T07:48:12.152Z,77805.00
2023-01-07T07:50:38.808Z,77793.09
2023-01-07T07:53:05.237Z,77773.22
2023-01-07T07:55:31.632Z,77771.22
2023-01-07T07:58:00.996Z,77761.28
2023-01-07T08:00:27.565Z,77741.41
2023-01-07T08:02:57.836Z,77775.19
2023-01-07T08:05:24.416Z,77773.22
2023-01-07T08:07:50.965Z,77761.28
2023-01-07T08:10:17.720Z,77745.38
2023-01-07T08:12:44.174Z,77733.47
2023-01-07T08:15:10.829Z,77739.41
2023-01-07T08:17:37.268Z,77741.41
2023-01-07T08:20:05.465Z,77733.47
2023-01-07T08:22:33.297Z,77739.41
2023-01-07T08:25:00.181Z,77743.41
2023-01-07T08:27:27.921Z,77717.56
2023-01-07T08:29:55.185Z,77715.56
2023-01-07T08:32:21.983Z,77703.63
2023-01-07T08:34:48.658Z,77693.69
2023-01-07T08:37:15.180Z,77695.69
2023-01-07T08:39:41.581Z,77693.69
2023-01-07T08:42:08.305Z,77687.72
2023-01-07T08:44:34.801Z,77691.72
2023-01-07T08:47:01.480Z,77695.69
2023-01-07T08:49:28.018Z,77691.72
2023-01-07T08:51:54.703Z,77685.75
2023-01-07T08:54:21.187Z,77695.69
2023-01-07T08:56:47.640Z,77687.72
2023-01-07T08:59:14.170Z,77667.84
2023-01-07T09:01:40.920Z,77647.97
2023-01-07T09:04:07.558Z,77647.97
2023-01-07T09:06:34.031Z,77638.03
2023-01-07T09:09:00.519Z,77622.13
2023-01-07T09:11:27.024Z,77612.19
2023-01-07T09:13:53.465Z,77604.25
2023-01-07T09:16:20.024Z,77598.28
2023-01-07T09:18:46.477Z,77632.06
2023-01-07T09:21:12.977Z,77636.06
2023-01-07T09:23:40.419Z,77636.06
2023-01-07T09:26:07.489Z,77632.06
2023-01-07T09:28:33.912Z,77624.13
2023-01-07T09:31:00.900Z,77634.06
2023-01-07T09:33:27.357Z,77636.06
2023-01-07T09:35:53.866Z,77634.06
2023-01-07T09:38:20.456Z,77622.13
2023-01-07T09:40:47.769Z,77604.25
2023-01-07T09:44:00.284Z,77574.44
2023-01-07T09:46:20.545Z,77566.47
2023-01-07T09:48:57.858Z,77540.63
2023-01-07T09:51:31.691Z,77534.69
2023-01-07T09:54:01.833Z,77518.78
2023-01-07T09:56:33.888Z,77500.88
2023-01-07T09:59:01.598Z,77483.00
2023-01-07T10:01:32.856Z,77504.84
2023-01-07T10:04:24.358Z,77494.91
2023-01-07T10:07:23.845Z,77473.06
2023-01-07T10:10:05.527Z,77481.00
2023-01-07T10:12:37.935Z,77481.00
2023-01-07T10:15:13.761Z,77477.03
2023-01-07T10:18:12.254Z,77475.03
2023-01-07T10:20:58.733Z,77459.13
2023-01-07T10:23:31.926Z,77441.25
2023-01-07T10:26:01.484Z,77445.22
2023-01-07T10:28:54.560Z,77419.38
2023-01-07T10:31:27.382Z,77433.31
2023-01-07T10:33:57.263Z,77421.38
2023-01-07T10:36:31.977Z,77415.41
2023-01-07T10:39:27.267Z,77411.44
2023-01-07T10:42:20.286Z,77419.38
2023-01-07T10:45:06.082Z,77405.47
2023-01-07T10:47:39.108Z,77405.47
2023-01-07T10:50:32.989Z,77391.56
2023-01-07T10:53:13.605Z,77389.56
2023-01-07T10:55:46.018Z,77383.59
2023-01-07T10:58:12.551Z,77371.69
2023-01-07T11:00:40.402Z,77353.78
2023-01-07T11:03:18.366Z,77318.03
2023-01-07T11:05:46.907Z,77298.13
2023-01-07T11:08:39.142Z,77298.13
2023-01-07T11:11:07.296Z,77288.22
2023-01-07T11:13:36.647Z,77288.22
2023-01-07T11:16:09.003Z,77288.22
2023-01-07T11:19:06.512Z,77266.34
2023-01-07T11:21:42.993Z,77274.28
2023-01-07T11:24:19.836Z,77256.41
2023-01-07T11:26:46.646Z,77264.34
2023-01-07T11:29:23.760Z,77280.25
2023-01-07T11:31:54.830Z,77234.53
2023-01-07T11:34:24.266Z,77238.50
2023-01-07T11:36:51.526Z,77230.56
2023-01-07T11:39:26.819Z,77206.72
2023-01-07T11:42:36.249Z,77208.69
2023-01-07T11:45:11.367Z,77222.63
2023-01-07T11:47:39.809Z,77208.69
2023-01-07T11:50:06.673Z,77200.75
2023-01-07T11:52:33.181Z,77198.75
2023-01-07T11:54:59.628Z,77188.81
2023-01-07T11:57:27.040Z,77194.78
2023-01-07T12:00:16.279Z,77186.84
2023-01-07T12:02:42.954Z,77198.75
2023-01-07T12:05:26.334Z,77232.56
2023-01-07T12:07:54.026Z,77234.53
2023-01-07T12:10:38.511Z,77226.59
2023-01-07T12:13:07.310Z,77244.47
2023-01-07T12:15:48.301Z,77242.50
2023-01-07T12:18:33.200Z,77202.75
2023-01-07T12:21:34.277Z,77204.72
2023-01-07T12:24:22.207Z,77212.69
2023-01-07T12:27:19.056Z,77202.75
2023-01-07T12:30:03.093Z,77190.81
2023-01-07T12:32:43.243Z,77202.75
2023-01-07T12:35:18.430Z,77194.78
2023-01-07T12:37:57.397Z,77176.91
2023-01-07T12:40:38.946Z,77172.94
2023-01-07T12:43:18.421Z,77164.97
2023-01-07T12:45:53.852Z,77143.13
2023-01-07T12:48:28.631Z,77147.09
2023-01-07T12:50:59.824Z,77161.00
2023-01-07T12:53:38.482Z,77163.00
2023-01-07T12:56:16.837Z,77153.06
2023-01-07T12:58:53.690Z,77159.00
2023-01-07T13:02:11.421Z,77151.06
2023-01-07T13:04:48.941Z,77141.13
2023-01-07T13:07:43.126Z,77166.97
2023-01-07T13:10:19.430Z,77139.13
2023-01-07T13:12:49.128Z,77137.16
2023-01-07T13:15:27.046Z,77176.91
2023-01-07T13:17:56.283Z,77149.06
2023-01-07T13:21:00.630Z,77149.06
2023-01-07T13:24:02.766Z,77125.22
2023-01-07T13:26:56.277Z,77131.19
2023-01-07T13:29:51.167Z,77131.19
2023-01-07T13:32:46.843Z,77119.25
2023-01-07T13:35:23.045Z,77117.28
2023-01-07T13:38:13.130Z,77182.88
2023-01-07T13:40:53.819Z,77139.13
2023-01-07T13:43:30.751Z,77168.94
2023-01-07T13:46:03.432Z,77139.13
2023-01-07T13:48:30.345Z,77159.00
2023-01-07T13:51:02.417Z,77172.94
2023-01-07T13:53:32.038Z,77178.88
2023-01-07T13:56:35.450Z,77188.81
2023-01-07T13:59:02.220Z,77206.72
2023-01-07T14:01:33.556Z,77242.50
2023-01-07T14:04:03.305Z,77212.69
2023-01-07T14:06:29.636Z,77212.69
2023-01-07T14:09:06.765Z,77250.44
2023-01-07T14:11:33.104Z,77244.47
2023-01-07T14:14:07.714Z,77244.47
2023-01-07T14:16:40.606Z,77280.25
2023-01-07T14:19:19.093Z,77272.31
2023-01-07T14:22:05.927Z,77266.34
2023-01-07T14:24:39.343Z,77272.31
2023-01-07T14:27:32.508Z,77278.25
2023-01-07T14:30:16.930Z,77331.94
2023-01-07T14:32:44.145Z,77355.78
2023-01-07T14:35:10.477Z,77361.75
2023-01-07T14:37:39.004Z,77337.91
2023-01-07T14:40:27.375Z,77369.69
2023-01-07T14:42:55.019Z,77377.66
2023-01-07T14:45:36.813Z,77347.84
2023-01-07T14:48:09.811Z,77333.91
2023-01-07T14:51:01.691Z,77349.81
2023-01-07T14:54:05.313Z,77333.91
2023-01-07T14:56:45.429Z,77325.97
2023-01-07T14:59:25.482Z,77353.78
2023-01-07T15:02:16.011Z,77314.03
2023-01-07T15:05:01.663Z,77327.97
2023-01-07T15:07:34.102Z,77306.09
2023-01-07T15:10:22.092Z,77302.13
2023-01-07T15:13:12.869Z,77290.19
2023-01-07T15:15:59.494Z,77306.09
2023-01-07T15:18:26.085Z,77302.13
2023-01-07T15:21:30.656Z,77318.03
2023-01-07T15:24:12.157Z,77329.94
2023-01-07T15:26:57.445Z,77329.94
2023-01-07T15:29:42.524Z,77323.97
2023-01-07T15:33:00.294Z,77329.94
2023-01-07T15:35:33.711Z,77325.97
2023-01-07T15:38:02.799Z,77325.97
2023-01-07T15:40:29.233Z,77327.97
2023-01-07T15:42:58.280Z,77325.97
2023-01-07T15:45:27.682Z,77320.00
2023-01-07T15:48:05.775Z,77341.88
2023-01-07T15:50:37.576Z,77323.97
2023-01-07T15:53:10.138Z,77335.91
2023-01-07T15:55:40.359Z,77347.84
2023-01-07T15:58:12.791Z,77335.91
2023-01-07T16:00:39.363Z,77347.84
2023-01-07T16:03:06.009Z,77347.84
2023-01-07T16:05:32.966Z,77347.84
2023-01-07T16:08:01.429Z,77383.59
2023-01-07T16:10:34.005Z,77393.56
2023-01-07T16:13:02.836Z,77387.59
2023-01-07T16:15:34.961Z,77367.72
2023-01-07T16:18:09.472Z,77373.66
2023-01-07T16:20:43.284Z,77371.69
2023-01-07T16:23:09.682Z,77363.72
2023-01-07T16:25:50.441Z,77369.69
2023-01-07T16:28:22.001Z,77365.72
2023-01-07T16:30:51.661Z,77357.78
2023-01-07T16:33:22.978Z,77357.78
2023-01-07T16:35:51.136Z,77353.78
2023-01-07T16:38:19.807Z,77343.84
2023-01-07T16:40:48.029Z,77347.84
2023-01-07T16:43:42.378Z,77347.84
2023-01-07T16:46:19.736Z,77343.84
2023-01-07T16:48:48.401Z,77322.00
2023-01-07T16:51:35.263Z,77323.97
2023-01-07T16:54:20.667Z,77322.00
2023-01-07T16:56:54.148Z,77312.06
2023-01-07T16:59:24.310Z,77316.03
2023-01-07T17:01:51.033Z,77302.13
2023-01-07T17:04:23.122Z,77314.03
2023-01-07T17:06:50.047Z,77323.97
2023-01-07T17:09:23.865Z,77331.94
2023-01-07T17:11:52.136Z,77325.97
2023-01-07T17:14:33.859Z,77302.13
2023-01-07T17:17:02.049Z,77298.13
2023-01-07T17:19:38.436Z,77294.16
2023-01-07T17:22:34.967Z,77290.19
2023-01-07T17:25:13.550Z,77323.97
2023-01-07T17:27:51.775Z,77302.13
2023-01-07T17:30:20.700Z,77288.22
2023-01-07T17:32:50.677Z,77294.16
2023-01-07T17:35:22.660Z,77308.09
2023-01-07T17:37:49.979Z,77314.03
2023-01-07T17:40:16.636Z,77308.09
2023-01-07T17:43:03.380Z,77304.09
2023-01-07T17:45:29.865Z,77306.09
2023-01-07T17:47:56.905Z,77298.13
2023-01-07T17:50:23.510Z,77316.03
2023-01-07T17:52:53.061Z,77335.91
2023-01-07T17:55:28.072Z,77306.09
2023-01-07T17:57:54.623Z,77314.03
2023-01-07T18:00:24.387Z,77316.03
2023-01-07T18:02:51.753Z,77316.03
2023-01-07T18:05:23.729Z,77318.03
2023-01-07T18:07:51.860Z,77347.84
2023-01-07T18:10:25.756Z,77353.78
2023-01-07T18:12:52.194Z,77359.75
2023-01-07T18:15:24.449Z,77365.72
2023-01-07T18:17:51.741Z,77327.97
2023-01-07T18:20:20.099Z,77351.81
2023-01-07T18:22:47.131Z,77371.69
2023-01-07T18:25:16.910Z,77337.91
2023-01-07T18:27:43.398Z,77322.00
2023-01-07T18:30:15.283Z,77318.03
2023-01-07T18:32:42.245Z,77304.09
2023-01-07T18:35:09.737Z,77345.84
2023-01-07T18:37:36.540Z,77337.91
2023-01-07T18:40:05.083Z,77353.78
2023-01-07T18:42:33.218Z,77345.84
2023-01-07T18:44:59.688Z,77323.97
2023-01-07T18:47:26.096Z,77331.94
2023-01-07T18:49:52.545Z,77322.00
2023-01-07T18:52:19.016Z,77347.84
2023-01-07T18:54:45.928Z,77314.03
2023-01-07T18:57:12.466Z,77302.13
2023-01-07T18:59:38.863Z,77296.16
2023-01-07T19:02:08.797Z,77341.88
2023-01-07T19:04:37.512Z,77294.16
2023-01-07T19:07:03.919Z,77355.78
2023-01-07T19:09:30.299Z,77351.81
2023-01-07T19:11:56.676Z,77351.81
2023-01-07T19:14:23.076Z,77363.72
2023-01-07T19:16:50.685Z,77353.78
2023-01-07T19:19:17.434Z,77361.75
2023-01-07T19:21:46.515Z,77373.66
2023-01-07T19:24:12.914Z,77369.69
2023-01-07T19:26:39.332Z,77375.66
2023-01-07T19:29:05.759Z,77377.66
2023-01-07T19:31:32.163Z,77365.72
2023-01-07T19:33:58.652Z,77353.78
2023-01-07T19:36:25.076Z,77322.00
2023-01-07T19:38:51.479Z,77325.97
2023-01-07T19:41:19.863Z,77322.00
2023-01-07T19:43:47.149Z,77323.97
2023-01-07T19:46:15.635Z,77318.03
2023-01-07T19:48:42.150Z,77318.03
2023-01-07T19:51:08.642Z,77325.97
2023-01-07T19:53:35.509Z,77343.84
2023-01-07T19:56:07.894Z,77304.09
2023-01-07T19:58:38.103Z,77339.88
2023-01-07T20:01:16.546Z,77325.97
2023-01-07T20:03:43.661Z,77323.97
2023-01-07T20:06:15.659Z,77337.91
2023-01-07T20:08:42.169Z,77300.13
2023-01-07T20:11:09.541Z,77306.09
2023-01-07T20:13:38.004Z,77304.09
2023-01-07T20:16:11.204Z,77294.16
2023-01-07T20:18:44.729Z,77341.88
2023-01-07T20:21:12.942Z,77323.97
2023-01-07T20:23:43.443Z,77312.06
2023-01-07T20:26:13.401Z,77286.22
2023-01-07T20:28:40.100Z,77300.13
2023-01-07T20:31:13.165Z,77274.28
2023-01-07T20:33:40.325Z,77331.94
2023-01-07T20:36:16.481Z,77318.03
2023-01-07T20:38:44.546Z,77316.03
2023-01-07T20:41:23.808Z,77314.03
2023-01-07T20:43:55.221Z,77270.31
2023-01-07T20:46:23.106Z,77296.16
2023-01-07T20:48:50.146Z,77298.13
2023-01-07T20:51:17.504Z,77302.13
2023-01-07T20:53:44.646Z,77282.25
2023-01-07T20:56:12.399Z,77270.31
2023-01-07T20:58:39.411Z,77312.06
2023-01-07T21:01:08.933Z,77266.34
2023-01-07T21:03:37.172Z,77282.25
2023-01-07T21:06:03.894Z,77284.22
2023-01-07T21:08:30.476Z,77254.41
2023-01-07T21:10:56.833Z,77286.22
2023-01-07T21:13:23.870Z,77238.50
2023-01-07T21:15:51.068Z,77234.53
2023-01-07T21:18:17.835Z,77250.44
2023-01-07T21:20:44.963Z,77266.34
2023-01-07T21:23:12.128Z,77254.41
2023-01-07T21:25:38.595Z,77256.41
2023-01-07T21:28:06.637Z,77268.31
2023-01-07T21:30:33.773Z,77230.56
2023-01-07T21:33:00.247Z,77226.59
2023-01-07T21:35:26.692Z,77212.69
2023-01-07T21:37:54.115Z,77196.78
2023-01-07T21:40:21.630Z,77214.66
2023-01-07T21:42:48.456Z,77214.66
2023-01-07T21:45:15.088Z,77214.66
2023-01-07T21:47:41.816Z,77210.69
2023-01-07T21:50:08.774Z,77206.72
2023-01-07T21:52:35.865Z,77214.66
2023-01-07T21:55:02.571Z,77242.50
2023-01-07T21:57:29.039Z,77234.53
2023-01-07T21:59:55.514Z,77258.38
2023-01-07T22:02:21.939Z,77230.56
2023-01-07T22:04:48.428Z,77222.63
2023-01-07T22:07:16.626Z,77258.38
2023-01-07T22:09:43.664Z,77250.44
2023-01-07T22:12:14.454Z,77252.44
2023-01-07T22:14:41.364Z,77238.50
2023-01-07T22:17:13.881Z,77250.44
2023-01-07T22:19:40.431Z,77254.41
2023-01-07T22:22:07.369Z,77252.44
2023-01-07T22:24:34.478Z,77250.44
2023-01-07T22:27:01.021Z,77264.34
2023-01-07T22:29:28.771Z,77256.41
2023-01-07T22:31:55.349Z,77256.41
2023-01-07T22:34:21.799Z,77250.44
2023-01-07T22:37:01.443Z,77262.38
2023-01-07T22:39:43.150Z,77248.44
2023-01-07T22:42:14.993Z,77252.44
2023-01-07T22:44:46.671Z,77252.44
2023-01-07T22:47:16.334Z,77242.50
2023-01-07T22:49:43.455Z,77266.34
2023-01-07T22:52:11.349Z,77268.31
2023-01-07T22:54:38.382Z,77282.25
2023-01-07T22:57:06.802Z,77298.13
2023-01-07T22:59:33.225Z,77286.22
2023-01-07T23:01:59.610Z,77284.22
2023-01-07T23:04:26.048Z,77294.16
2023-01-07T23:06:52.610Z,77308.09
2023-01-07T23:09:19.085Z,77310.06
2023-01-07T23:11:48.049Z,77306.09
2023-01-07T23:14:15.985Z,77314.03
2023-01-07T23:16:42.426Z,77300.13
2023-01-07T23:19:08.981Z,77306.09
2023-01-07T23:21:37.594Z,77294.16
2023-01-07T23:24:04.137Z,77288.22
2023-01-07T23:26:30.543Z,77306.09
2023-01-07T23:28:56.958Z,77308.09
2023-01-07T23:31:23.427Z,77294.16
2023-01-07T23:33:49.916Z,77306.09
2023-01-07T23:36:16.365Z,77296.16
2023-01-07T23:38:42.799Z,77294.16
2023-01-07T23:41:11.018Z,77302.13
2023-01-07T23:43:37.498Z,77290.19
2023-01-07T23:46:06.585Z,77314.03
2023-01-07T23:48:34.535Z,77316.03
2023-01-07T23:51:12.449Z,77308.09
2023-01-07T23:53:39.562Z,77327.97
2023-01-07T23:56:06.852Z,77337.91
2023-01-07T23:58:34.157Z,77325.97
